createdAt,value
2023-03-22T00:00:30.360Z,13.05
2023-03-22T00:01:30.364Z,13.08
2023-03-22T00:02:30.401Z,13.10
2023-03-22T00:03:30.322Z,13.15
2023-03-22T00:04:30.299Z,13.19
2023-03-22T00:05:30.310Z,12.99
2023-03-22T00:06:30.276Z,12.98
2023-03-22T00:07:30.265Z,13.15
2023-03-22T00:08:30.258Z,13.16
2023-03-22T00:09:30.233Z,12.87
2023-03-22T00:10:30.210Z,12.90
2023-03-22T00:11:30.207Z,12.97
2023-03-22T00:12:30.204Z,12.89
2023-03-22T00:13:30.180Z,12.79
2023-03-22T00:14:30.174Z,12.53
2023-03-22T00:15:30.176Z,12.76
2023-03-22T00:16:30.223Z,12.74
2023-03-22T00:17:30.140Z,12.62
2023-03-22T00:18:30.124Z,12.42
2023-03-22T00:19:30.118Z,12.78
2023-03-22T00:20:30.125Z,12.63
2023-03-22T00:21:30.125Z,12.54
2023-03-22T00:22:30.094Z,12.47
2023-03-22T00:23:30.092Z,12.40
2023-03-22T00:24:30.077Z,12.36
2023-03-22T00:25:30.057Z,12.41
2023-03-22T00:26:30.064Z,12.57
2023-03-22T00:27:30.036Z,12.49
2023-03-22T00:28:30.020Z,12.16
2023-03-22T00:29:30.045Z,12.35
2023-03-22T00:30:29.998Z,12.26
2023-03-22T00:31:30.040Z,12.17
2023-03-22T00:32:29.973Z,12.27
2023-03-22T00:33:29.969Z,12.04
2023-03-22T00:34:29.945Z,12.00
2023-03-22T00:35:29.984Z,12.07
2023-03-22T00:36:29.936Z,11.87
2023-03-22T00:37:29.934Z,12.08
2023-03-22T00:38:41.421Z,12.02
2023-03-22T00:39:30.906Z,12.03
2023-03-22T00:40:29.911Z,12.08
2023-03-22T00:41:29.888Z,12.04
2023-03-22T00:42:29.885Z,12.04
2023-03-22T00:43:29.883Z,12.11
2023-03-22T00:44:29.865Z,11.85
2023-03-22T00:45:29.848Z,12.00
2023-03-22T00:46:29.863Z,11.92
2023-03-22T00:47:29.832Z,11.94
2023-03-22T00:48:29.827Z,11.96
2023-03-22T00:49:29.800Z,11.74
2023-03-22T00:50:29.791Z,11.67
2023-03-22T00:51:29.773Z,11.76
2023-03-22T00:52:29.765Z,11.71
2023-03-22T00:53:29.780Z,11.76
2023-03-22T00:54:29.739Z,11.84
2023-03-22T00:55:29.711Z,11.53
2023-03-22T00:56:29.697Z,11.44
2023-03-22T00:57:29.709Z,11.49
2023-03-22T00:58:29.675Z,11.58
2023-03-22T00:59:29.673Z,11.49
2023-03-22T01:00:29.669Z,11.33
2023-03-22T01:01:29.719Z,11.34
2023-03-22T01:02:29.632Z,11.35
2023-03-22T01:03:29.679Z,11.57
2023-03-22T01:04:29.609Z,11.23
2023-03-22T01:05:29.598Z,11.38
2023-03-22T01:06:29.585Z,11.25
2023-03-22T01:07:29.579Z,11.14
2023-03-22T01:08:29.556Z,11.12
2023-03-22T01:09:29.548Z,11.03
2023-03-22T01:10:29.524Z,11.12
2023-03-22T01:11:29.516Z,11.13
2023-03-22T01:12:29.520Z,11.18
2023-03-22T01:13:29.494Z,11.14
2023-03-22T01:14:29.494Z,11.19
2023-03-22T01:15:29.492Z,10.89
2023-03-22T01:16:29.499Z,11.09
2023-03-22T01:17:29.466Z,11.13
2023-03-22T01:18:29.440Z,11.08
2023-03-22T01:19:29.432Z,11.09
2023-03-22T01:20:29.435Z,11.03
2023-03-22T01:21:29.430Z,10.90
2023-03-22T01:22:29.419Z,11.02
2023-03-22T01:23:29.400Z,10.99
2023-03-22T01:24:29.386Z,10.87
2023-03-22T01:25:29.367Z,10.80
2023-03-22T01:26:29.368Z,10.67
2023-03-22T01:27:29.344Z,10.72
2023-03-22T01:28:29.363Z,10.79
2023-03-22T01:29:29.321Z,10.95
2023-03-22T01:30:29.334Z,10.77
2023-03-22T01:31:29.309Z,10.72
2023-03-22T01:32:29.292Z,10.58
2023-03-22T01:33:29.276Z,10.43
2023-03-22T01:34:29.259Z,10.56
2023-03-22T01:35:29.273Z,10.41
2023-03-22T01:36:29.256Z,10.51
2023-03-22T01:37:29.249Z,10.46
2023-03-22T01:38:29.238Z,10.35
2023-03-22T01:39:29.200Z,10.34
2023-03-22T01:40:29.188Z,10.45
2023-03-22T01:41:29.177Z,10.37
2023-03-22T01:42:29.196Z,10.38
2023-03-22T01:43:29.164Z,10.29
2023-03-22T01:44:29.140Z,10.26
2023-03-22T01:45:29.139Z,10.26
2023-03-22T01:46:29.145Z,10.24
2023-03-22T01:47:29.110Z,10.10
2023-03-22T01:48:29.104Z,10.17
2023-03-22T01:49:29.087Z,10.09
2023-03-22T01:50:29.056Z,10.13
2023-03-22T01:51:29.057Z,10.42
2023-03-22T01:52:29.045Z,10.03
2023-03-22T01:53:29.058Z,9.99
2023-03-22T01:54:29.023Z,9.96
2023-03-22T01:55:29.008Z,9.74
2023-03-22T01:56:28.988Z,9.98
2023-03-22T01:57:28.964Z,9.95
2023-03-22T01:58:28.954Z,9.86
2023-03-22T01:59:28.934Z,9.84
2023-03-22T02:00:28.925Z,9.65
2023-03-22T02:01:28.961Z,9.72
2023-03-22T02:02:28.888Z,9.86
2023-03-22T02:03:28.915Z,9.58
2023-03-22T02:04:28.859Z,9.93
2023-03-22T02:05:28.860Z,9.83
2023-03-22T02:06:28.837Z,9.64
2023-03-22T02:07:28.834Z,9.80
2023-03-22T02:08:28.829Z,9.87
2023-03-22T02:09:28.815Z,9.75
2023-03-22T02:10:28.798Z,9.55
2023-03-22T02:11:28.798Z,9.47
2023-03-22T02:12:28.780Z,9.60
2023-03-22T02:13:28.770Z,9.50
2023-03-22T02:14:28.762Z,9.47
2023-03-22T02:15:28.750Z,9.30
2023-03-22T02:16:28.724Z,9.45
2023-03-22T02:17:28.736Z,9.43
2023-03-22T02:18:28.719Z,9.33
2023-03-22T02:19:28.710Z,9.33
2023-03-22T02:20:28.694Z,9.25
2023-03-22T02:21:28.690Z,9.17
2023-03-22T02:22:28.678Z,9.30
2023-03-22T02:23:28.670Z,9.31
2023-03-22T02:24:28.664Z,9.11
2023-03-22T02:25:28.619Z,9.28
2023-03-22T02:26:28.617Z,9.34
2023-03-22T02:27:28.601Z,9.21
2023-03-22T02:28:28.611Z,9.09
2023-03-22T02:29:28.594Z,9.06
2023-03-22T02:30:28.570Z,9.00
2023-03-22T02:31:28.623Z,8.97
2023-03-22T02:32:28.570Z,9.28
2023-03-22T02:33:28.539Z,9.07
2023-03-22T02:34:28.562Z,9.09
2023-03-22T02:35:28.592Z,9.10
2023-03-22T02:36:28.498Z,9.07
2023-03-22T02:37:28.492Z,9.32
2023-03-22T02:38:28.487Z,9.12
2023-03-22T02:39:28.479Z,8.93
2023-03-22T02:40:28.453Z,9.06
2023-03-22T02:41:28.451Z,8.84
2023-03-22T02:42:28.433Z,8.86
2023-03-22T02:43:28.424Z,8.92
2023-03-22T02:44:28.398Z,9.07
2023-03-22T02:45:28.384Z,8.82
2023-03-22T02:46:28.387Z,8.91
2023-03-22T02:47:28.349Z,8.87
2023-03-22T02:48:28.327Z,8.72
2023-03-22T02:49:28.318Z,8.72
2023-03-22T02:50:28.318Z,8.68
2023-03-22T02:51:28.296Z,8.66
2023-03-22T02:52:28.293Z,8.83
2023-03-22T02:53:28.268Z,8.68
2023-03-22T02:54:28.271Z,8.65
2023-03-22T02:55:28.247Z,8.69
2023-03-22T02:56:28.235Z,8.51
2023-03-22T02:57:28.239Z,7.93
2023-03-22T02:58:28.211Z,7.57
2023-03-22T02:59:28.211Z,6.93
2023-03-22T03:00:28.194Z,6.44
2023-03-22T03:01:28.169Z,5.91
2023-03-22T03:02:28.238Z,5.49
2023-03-22T03:03:28.148Z,5.09
2023-03-22T03:04:28.140Z,4.87
2023-03-22T03:05:28.133Z,4.48
2023-03-22T03:06:28.122Z,4.04
2023-03-22T03:07:28.123Z,3.79
2023-03-22T03:08:28.113Z,3.49
2023-03-22T03:09:28.109Z,3.12
2023-03-22T03:10:28.094Z,2.94
2023-03-22T03:11:28.109Z,2.71
2023-03-22T03:12:28.114Z,2.61
2023-03-22T03:13:28.093Z,2.50
2023-03-22T03:14:28.087Z,2.37
2023-03-22T03:15:28.078Z,2.23
2023-03-22T03:16:28.068Z,2.12
2023-03-22T03:17:28.074Z,1.93
2023-03-22T03:18:28.060Z,1.90
2023-03-22T03:19:28.074Z,1.83
2023-03-22T03:20:28.040Z,1.78
2023-03-22T03:21:28.044Z,1.68
2023-03-22T03:22:28.055Z,1.60
2023-03-22T03:23:28.064Z,1.49
2023-03-22T03:24:28.042Z,1.43
2023-03-22T03:25:28.037Z,1.34
2023-03-22T03:26:28.037Z,1.34
2023-03-22T03:27:28.033Z,1.24
2023-03-22T03:28:28.033Z,1.21
2023-03-22T03:29:28.047Z,1.25
2023-03-22T03:30:28.021Z,1.23
2023-03-22T03:31:28.086Z,1.18
2023-03-22T03:32:28.019Z,1.14
2023-03-22T03:33:27.992Z,1.14
2023-03-22T03:34:27.997Z,1.15
2023-03-22T03:35:27.989Z,1.17
2023-03-22T03:36:27.964Z,1.20
2023-03-22T03:37:27.950Z,1.27
2023-03-22T03:38:27.960Z,1.29
2023-03-22T03:39:27.953Z,1.23
2023-03-22T03:40:27.958Z,1.23
2023-03-22T03:41:27.942Z,1.15
2023-03-22T03:42:27.962Z,1.12
2023-03-22T03:43:27.950Z,1.05
2023-03-22T03:44:27.940Z,0.99
2023-03-22T03:45:27.991Z,0.95
2023-03-22T03:46:27.941Z,0.88
2023-03-22T03:47:27.947Z,0.85
2023-03-22T03:48:27.963Z,0.86
2023-03-22T03:49:27.955Z,0.83
2023-03-22T03:50:27.962Z,0.79
2023-03-22T03:51:27.957Z,0.78
2023-03-22T03:52:27.941Z,0.75
2023-03-22T03:53:27.941Z,0.74
2023-03-22T03:54:27.966Z,0.72
2023-03-22T03:55:27.966Z,0.70
2023-03-22T03:56:27.969Z,0.68
2023-03-22T03:57:27.980Z,0.66
2023-03-22T03:58:27.967Z,0.65
2023-03-22T03:59:27.960Z,0.63
2023-03-22T04:00:27.971Z,0.63
2023-03-22T04:01:27.966Z,0.61
2023-03-22T04:02:28.030Z,0.60
2023-03-22T04:03:27.973Z,0.58
2023-03-22T04:04:28.107Z,0.56
2023-03-22T04:05:27.982Z,0.55
2023-03-22T04:06:27.977Z,0.51
2023-03-22T04:07:27.966Z,0.50
2023-03-22T04:08:27.976Z,0.50
2023-03-22T04:09:27.980Z,0.53
2023-03-22T04:10:27.974Z,0.57
2023-03-22T04:11:27.958Z,0.59
2023-03-22T04:12:27.968Z,0.61
2023-03-22T04:13:27.980Z,0.66
2023-03-22T04:14:27.985Z,0.71
2023-03-22T04:15:28.238Z,0.76
2023-03-22T04:16:27.988Z,0.76
2023-03-22T04:17:27.966Z,0.77
2023-03-22T04:18:27.986Z,0.80
2023-03-22T04:19:27.971Z,0.86
2023-03-22T04:20:27.980Z,0.97
2023-03-22T04:21:27.971Z,1.00
2023-03-22T04:22:27.966Z,1.00
2023-03-22T04:23:27.968Z,0.94
2023-03-22T04:24:27.984Z,0.94
2023-03-22T04:25:27.959Z,0.92
2023-03-22T04:26:27.972Z,0.90
2023-03-22T04:27:27.963Z,0.89
2023-03-22T04:28:27.968Z,0.88
2023-03-22T04:29:27.956Z,0.86
2023-03-22T04:30:27.972Z,0.88
2023-03-22T04:31:28.007Z,0.90
2023-03-22T04:32:27.975Z,0.92
2023-03-22T04:33:27.971Z,0.95
2023-03-22T04:34:27.973Z,0.98
2023-03-22T04:35:27.997Z,1.01
2023-03-22T04:36:27.993Z,1.02
2023-03-22T04:37:27.980Z,1.02
2023-03-22T04:38:27.974Z,1.03
2023-03-22T04:39:27.982Z,1.03
2023-03-22T04:40:27.976Z,1.03
2023-03-22T04:41:29.477Z,1.03
2023-03-22T04:42:27.968Z,0.99
2023-03-22T04:43:27.973Z,0.95
2023-03-22T04:44:27.977Z,0.90
2023-03-22T04:45:27.972Z,0.89
2023-03-22T04:46:28.023Z,0.91
2023-03-22T04:47:27.986Z,0.86
2023-03-22T04:48:28.024Z,0.85
2023-03-22T04:49:27.997Z,0.85
2023-03-22T04:50:28.001Z,0.84
2023-03-22T04:51:28.008Z,0.83
2023-03-22T04:52:28.020Z,0.83
2023-03-22T04:53:28.068Z,0.83
2023-03-22T04:54:28.030Z,0.84
2023-03-22T04:55:28.030Z,0.85
2023-03-22T04:56:28.037Z,0.88
2023-03-22T04:57:28.046Z,0.89
2023-03-22T04:58:28.053Z,0.89
2023-03-22T04:59:28.032Z,0.88
2023-03-22T05:00:28.036Z,0.84
2023-03-22T05:01:28.068Z,0.86
2023-03-22T05:02:28.066Z,0.85
2023-03-22T05:03:28.043Z,0.80
2023-03-22T05:04:28.059Z,0.76
2023-03-22T05:05:28.041Z,0.73
2023-03-22T05:06:28.043Z,0.70
2023-03-22T05:07:28.043Z,0.68
2023-03-22T05:08:28.050Z,0.68
2023-03-22T05:09:28.050Z,0.67
2023-03-22T05:10:28.072Z,0.66
2023-03-22T05:11:28.079Z,0.66
2023-03-22T05:12:28.061Z,0.67
2023-03-22T05:13:28.067Z,0.65
2023-03-22T05:14:28.126Z,0.65
2023-03-22T05:15:28.077Z,0.64
2023-03-22T05:16:28.242Z,0.65
2023-03-22T05:17:28.074Z,0.66
2023-03-22T05:18:28.100Z,0.68
2023-03-22T05:19:28.083Z,0.68
2023-03-22T05:20:28.091Z,0.68
2023-03-22T05:21:28.086Z,0.66
2023-03-22T05:22:28.103Z,0.64
2023-03-22T05:23:28.093Z,0.64
2023-03-22T05:24:28.095Z,0.65
2023-03-22T05:25:28.105Z,0.68
2023-03-22T05:26:28.112Z,0.69
2023-03-22T05:27:28.116Z,0.72
2023-03-22T05:28:28.111Z,0.73
2023-03-22T05:29:28.111Z,0.72
2023-03-22T05:30:28.113Z,0.68
2023-03-22T05:31:28.133Z,0.69
2023-03-22T05:32:28.127Z,0.74
2023-03-22T05:33:28.118Z,0.77
2023-03-22T05:34:28.128Z,0.77
2023-03-22T05:35:28.170Z,0.78
2023-03-22T05:36:28.138Z,0.78
2023-03-22T05:37:28.133Z,0.77
2023-03-22T05:38:28.137Z,0.81
2023-03-22T05:39:28.136Z,0.84
2023-03-22T05:40:28.159Z,0.88
2023-03-22T05:41:28.160Z,0.92
2023-03-22T05:42:28.179Z,0.96
2023-03-22T05:43:28.168Z,0.98
2023-03-22T05:44:28.187Z,0.97
2023-03-22T05:45:28.195Z,0.96
2023-03-22T05:46:28.276Z,0.95
2023-03-22T05:47:28.207Z,0.94
2023-03-22T05:48:28.208Z,1.00
2023-03-22T05:49:28.209Z,1.01
2023-03-22T05:50:28.216Z,1.07
2023-03-22T05:51:28.217Z,1.14
2023-03-22T05:52:28.217Z,1.16
2023-03-22T05:53:28.218Z,1.23
2023-03-22T05:54:28.217Z,1.29
2023-03-22T05:55:28.219Z,1.34
2023-03-22T05:56:28.223Z,1.40
2023-03-22T05:57:28.219Z,1.43
2023-03-22T05:58:28.224Z,1.48
2023-03-22T05:59:28.225Z,1.56
2023-03-22T06:00:28.233Z,1.66
2023-03-22T06:01:28.208Z,1.72
2023-03-22T06:02:28.213Z,1.79
2023-03-22T06:03:28.289Z,1.85
2023-03-22T06:04:28.277Z,1.91
2023-03-22T06:05:28.198Z,2.06
2023-03-22T06:06:28.239Z,2.15
2023-03-22T06:07:28.203Z,2.22
2023-03-22T06:08:28.198Z,2.28
2023-03-22T06:09:28.204Z,2.34
2023-03-22T06:10:28.194Z,2.41
2023-03-22T06:11:28.187Z,2.44
2023-03-22T06:12:30.087Z,2.49
2023-03-22T06:13:28.214Z,2.49
2023-03-22T06:14:28.195Z,2.45
2023-03-22T06:15:28.219Z,2.45
2023-03-22T06:16:28.245Z,2.43
2023-03-22T06:17:28.199Z,2.44
2023-03-22T06:18:28.192Z,2.49
2023-03-22T06:19:28.195Z,2.49
2023-03-22T06:20:28.180Z,2.51
2023-03-22T06:21:28.168Z,2.53
2023-03-22T06:22:28.168Z,2.59
2023-03-22T06:23:28.163Z,2.82
2023-03-22T06:24:28.170Z,3.00
2023-03-22T06:25:28.154Z,3.18
2023-03-22T06:26:28.151Z,3.34
2023-03-22T06:27:28.168Z,3.31
2023-03-22T06:28:28.146Z,3.45
2023-03-22T06:29:28.146Z,3.39
2023-03-22T06:30:28.175Z,3.51
2023-03-22T06:31:28.162Z,3.49
2023-03-22T06:32:28.150Z,3.46
2023-03-22T06:33:28.150Z,3.51
2023-03-22T06:34:28.162Z,3.31
2023-03-22T06:35:28.145Z,3.34
2023-03-22T06:36:28.157Z,3.22
2023-03-22T06:37:28.156Z,3.27
2023-03-22T06:38:28.167Z,3.30
2023-03-22T06:39:28.136Z,3.25
2023-03-22T06:40:28.160Z,3.25
2023-03-22T06:41:28.143Z,3.22
2023-03-22T06:42:28.155Z,3.28
2023-03-22T06:43:28.146Z,3.44
2023-03-22T06:44:28.160Z,3.58
2023-03-22T06:45:28.143Z,3.68
2023-03-22T06:46:28.189Z,3.82
2023-03-22T06:47:28.205Z,3.83
2023-03-22T06:48:28.193Z,3.84
2023-03-22T06:49:28.167Z,3.25
2023-03-22T06:50:28.174Z,2.88
2023-03-22T06:51:28.179Z,2.77
2023-03-22T06:52:28.177Z,2.77
2023-03-22T06:53:28.201Z,2.63
2023-03-22T06:54:28.194Z,2.76
2023-03-22T06:55:28.240Z,2.29
2023-03-22T06:56:28.221Z,2.49
2023-03-22T06:57:28.231Z,2.47
2023-03-22T06:58:28.225Z,2.47
2023-03-22T06:59:28.197Z,2.49
2023-03-22T07:00:28.218Z,2.34
2023-03-22T07:01:28.304Z,2.27
2023-03-22T07:02:28.273Z,2.21
2023-03-22T07:03:28.244Z,2.18
2023-03-22T07:04:28.352Z,2.16
2023-03-22T07:05:28.257Z,2.18
2023-03-22T07:06:28.300Z,2.29
2023-03-22T07:07:28.256Z,2.09
2023-03-22T07:08:28.267Z,2.10
2023-03-22T07:09:28.261Z,2.06
2023-03-22T07:10:28.267Z,1.99
2023-03-22T07:11:28.278Z,1.97
2023-03-22T07:12:28.346Z,1.84
2023-03-22T07:13:28.279Z,1.81
2023-03-22T07:14:28.283Z,1.61
2023-03-22T07:15:28.304Z,1.68
2023-03-22T07:16:28.480Z,1.75
2023-03-22T07:17:28.283Z,1.78
2023-03-22T07:18:28.290Z,1.78
2023-03-22T07:19:28.288Z,1.64
2023-03-22T07:20:28.866Z,1.65
2023-03-22T07:21:28.298Z,1.51
2023-03-22T07:22:28.297Z,1.38
2023-03-22T07:23:28.295Z,1.57
2023-03-22T07:24:28.301Z,1.66
2023-03-22T07:25:28.292Z,1.68
2023-03-22T07:26:28.301Z,1.68
2023-03-22T07:27:28.306Z,1.70
2023-03-22T07:28:28.314Z,1.75
2023-03-22T07:29:28.308Z,1.85
2023-03-22T07:30:28.340Z,2.01
2023-03-22T07:31:28.305Z,2.01
2023-03-22T07:32:28.464Z,1.98
2023-03-22T07:33:28.316Z,2.08
2023-03-22T07:34:28.330Z,2.10
2023-03-22T07:35:28.350Z,2.04
2023-03-22T07:36:28.288Z,2.33
2023-03-22T07:37:28.318Z,2.48
2023-03-22T07:38:28.302Z,2.22
2023-03-22T07:39:28.310Z,2.46
2023-03-22T07:40:28.287Z,2.26
2023-03-22T07:41:28.286Z,2.32
2023-03-22T07:42:28.301Z,2.00
2023-03-22T07:43:28.274Z,1.82
2023-03-22T07:44:28.291Z,1.71
2023-03-22T07:45:28.291Z,1.71
2023-03-22T09:31:49.351Z,0.50
2023-03-22T09:32:49.288Z,0.50
2023-03-22T09:33:49.231Z,0.50
2023-03-22T09:34:49.161Z,0.50
2023-03-22T09:35:49.185Z,0.50
2023-03-22T09:36:49.025Z,0.34
2023-03-22T11:30:39.649Z,1.01
2023-03-22T11:31:39.070Z,0.96
2023-03-22T12:13:35.033Z,0.65
2023-03-22T12:14:34.911Z,0.71
2023-03-22T12:15:34.925Z,0.72
2023-03-22T12:16:34.871Z,0.71
2023-03-22T12:17:34.661Z,0.70
2023-03-22T12:18:34.560Z,0.65
2023-03-22T12:19:34.453Z,0.59
2023-03-22T12:20:34.359Z,0.57
2023-03-22T12:21:34.268Z,0.56
2023-03-22T12:22:34.170Z,0.58
2023-03-22T12:23:34.073Z,0.61
2023-03-22T12:24:33.974Z,0.48
2023-03-22T12:25:33.865Z,0.52
2023-03-22T12:26:33.800Z,0.59
2023-03-22T12:27:33.666Z,0.53
2023-03-22T12:28:33.591Z,0.53
2023-03-22T12:29:33.469Z,0.54
2023-03-22T12:30:33.390Z,0.53
2023-03-22T12:31:33.353Z,0.52
2023-03-22T12:32:33.252Z,0.52
2023-03-22T12:33:33.122Z,0.51
2023-03-22T12:34:32.995Z,0.62
2023-03-22T12:35:32.908Z,0.65
2023-03-22T12:36:32.821Z,0.60
2023-03-22T12:37:32.691Z,0.62
2023-03-22T12:38:32.609Z,0.72
2023-03-22T12:39:32.525Z,0.70
2023-03-22T12:40:32.422Z,0.76
2023-03-22T12:41:32.331Z,0.71
2023-03-22T12:42:34.730Z,0.74
2023-03-22T12:43:32.407Z,0.82
2023-03-22T12:44:32.212Z,0.89
2023-03-22T12:45:32.113Z,0.87
2023-03-22T12:46:32.038Z,0.84
2023-03-22T12:47:31.988Z,1.00
2023-03-22T12:48:31.977Z,1.10
2023-03-22T12:49:31.724Z,1.10
2023-03-22T12:50:31.625Z,1.19
2023-03-22T12:51:31.519Z,1.13
2023-03-22T12:52:34.847Z,1.14
2023-03-22T12:53:32.317Z,1.14
2023-03-22T12:54:31.212Z,1.15
2023-03-22T12:55:31.130Z,1.19
2023-03-22T12:56:31.027Z,1.31
2023-03-22T12:57:30.962Z,1.56
2023-03-22T12:58:30.850Z,1.87
2023-03-22T12:59:30.750Z,4.68
2023-03-22T13:00:30.685Z,7.29
2023-03-22T13:01:30.609Z,6.95
2023-03-22T13:02:30.594Z,7.34
2023-03-22T13:03:30.596Z,8.11
2023-03-22T13:04:30.258Z,10.59
2023-03-22T13:05:30.165Z,12.94
2023-03-22T13:06:30.052Z,15.25
2023-03-22T13:07:29.952Z,18.19
2023-03-22T13:08:31.835Z,21.28
2023-03-22T13:09:29.760Z,21.36
2023-03-22T13:10:29.700Z,22.00
2023-03-22T13:11:29.567Z,24.12
2023-03-22T13:12:29.466Z,27.68
2023-03-22T13:13:29.378Z,34.44
2023-03-22T13:14:29.277Z,37.24
2023-03-22T13:15:40.460Z,39.39
2023-03-22T13:16:30.120Z,39.40
2023-03-22T13:17:29.002Z,39.91
2023-03-22T13:18:30.538Z,40.41
2023-03-22T13:19:28.824Z,42.89
2023-03-22T13:20:28.684Z,42.77
2023-03-22T13:21:28.587Z,40.40
2023-03-22T13:22:28.489Z,42.43
2023-03-22T13:23:28.390Z,47.46
2023-03-22T13:24:28.288Z,49.89
2023-03-22T13:25:28.186Z,48.87
2023-03-22T13:26:28.086Z,41.36
2023-03-22T13:27:27.996Z,38.21
2023-03-22T13:28:27.903Z,41.69
2023-03-22T13:29:27.806Z,41.87
2023-03-22T13:30:27.687Z,42.98
2023-03-22T13:31:27.636Z,41.94
2023-03-22T13:32:27.515Z,42.87
2023-03-22T13:33:27.446Z,44.40
2023-03-22T13:34:27.328Z,47.23
2023-03-22T13:35:27.219Z,53.02
2023-03-22T13:36:27.121Z,58.90
2023-03-22T13:37:27.008Z,60.91
2023-03-22T13:38:26.900Z,65.02
2023-03-22T13:39:26.815Z,69.75
2023-03-22T13:40:26.695Z,74.49
2023-03-22T13:41:26.605Z,82.62
2023-03-22T13:42:26.490Z,84.07
2023-03-22T13:43:26.394Z,88.20
2023-03-22T13:44:26.305Z,88.11
2023-03-22T13:45:26.240Z,96.91
2023-03-22T13:46:26.181Z,97.18
2023-03-22T13:47:26.057Z,97.43
2023-03-22T13:48:25.994Z,99.58
2023-03-22T13:49:25.817Z,103.33
2023-03-22T13:50:25.700Z,113.61
2023-03-22T13:51:25.729Z,128.05
2023-03-22T13:52:25.512Z,132.61
2023-03-22T13:53:25.408Z,140.41
2023-03-22T13:54:25.424Z,140.67
2023-03-22T13:55:25.207Z,142.67
2023-03-22T13:56:25.094Z,145.01
2023-03-22T13:57:24.999Z,153.26
2023-03-22T13:58:24.904Z,169.20
2023-03-22T13:59:24.801Z,178.21
2023-03-22T14:00:24.722Z,175.58
2023-03-22T14:01:24.657Z,180.28
2023-03-22T14:02:24.671Z,178.92
2023-03-22T14:03:24.620Z,180.45
2023-03-22T14:04:24.291Z,182.76
2023-03-22T14:05:24.204Z,186.13
2023-03-22T14:06:24.108Z,191.82
2023-03-22T14:07:23.998Z,201.31
2023-03-22T14:08:23.894Z,204.09
2023-03-22T14:09:23.795Z,205.15
2023-03-22T14:10:23.751Z,211.78
2023-03-22T14:11:23.601Z,211.09
2023-03-22T14:12:23.523Z,211.27
2023-03-22T14:13:23.391Z,216.18
2023-03-22T14:14:23.280Z,219.91
2023-03-22T14:15:23.188Z,223.51
2023-03-22T14:16:23.178Z,230.53
2023-03-22T14:17:23.001Z,230.19
2023-03-22T14:18:22.883Z,231.22
2023-03-22T14:19:22.779Z,234.12
2023-03-22T14:20:22.684Z,229.81
2023-03-22T14:21:22.569Z,234.81
2023-03-22T14:46:12.044Z,0.50
2023-03-22T14:47:12.014Z,0.50
2023-03-22T14:51:11.917Z,0.50
2023-03-22T14:52:11.883Z,0.50
2023-03-22T14:53:11.855Z,0.50
2023-03-22T15:00:11.666Z,0.51
2023-03-22T15:01:11.640Z,0.51
2023-03-22T15:03:13.707Z,0.50
2023-03-22T15:04:11.667Z,0.51
2023-03-22T15:05:11.655Z,0.50
2023-03-22T15:06:11.636Z,0.51
2023-03-22T15:11:12.284Z,0.51
2023-03-22T15:13:11.457Z,0.51
2023-03-22T15:15:11.398Z,0.51
2023-03-22T15:16:11.457Z,0.52
2023-03-22T15:17:11.349Z,0.51
2023-03-22T15:21:11.230Z,0.51
2023-03-22T15:22:11.210Z,0.52
2023-03-22T15:25:11.113Z,0.52
2023-03-22T15:26:11.088Z,0.53
2023-03-22T15:27:11.059Z,0.54
2023-03-22T15:28:11.046Z,0.53
2023-03-22T15:31:10.988Z,0.54
2023-03-22T15:32:10.927Z,0.53
2023-03-22T15:36:10.812Z,0.53
2023-03-22T15:37:10.769Z,0.53
2023-03-22T15:38:10.738Z,0.52
2023-03-22T15:40:10.702Z,0.53
2023-03-22T15:42:10.640Z,0.53
2023-03-22T15:45:10.567Z,0.52
2023-03-22T15:46:10.620Z,0.53
2023-03-22T15:49:10.461Z,0.53
2023-03-22T15:50:10.445Z,0.53
2023-03-22T15:51:10.423Z,0.52
2023-03-22T15:52:10.385Z,0.52
2023-03-22T15:53:10.358Z,0.53
2023-03-22T15:56:10.300Z,0.53
2023-03-22T15:57:10.292Z,0.53
2023-03-22T15:59:10.207Z,0.53
2023-03-22T16:02:10.140Z,0.54
2023-03-22T16:03:10.142Z,0.53
2023-03-22T16:06:10.049Z,0.53
2023-03-22T16:07:09.994Z,0.54
2023-03-22T16:08:09.966Z,0.54
2023-03-22T16:09:09.947Z,0.53
2023-03-22T16:13:09.845Z,0.53
2023-03-22T16:14:09.817Z,0.53
2023-03-22T16:17:09.749Z,0.53
2023-03-22T16:18:09.731Z,0.54
2023-03-22T16:19:09.710Z,0.53
2023-03-22T16:24:09.591Z,0.53
2023-03-22T16:26:09.531Z,0.52
2023-03-22T16:27:09.521Z,0.52
2023-03-22T16:28:09.503Z,0.52
2023-03-22T16:29:09.463Z,0.53
2023-03-22T16:34:09.367Z,0.51
2023-03-22T16:35:09.342Z,0.52
2023-03-22T16:37:09.332Z,0.52
2023-03-22T16:38:09.273Z,0.51
2023-03-22T16:40:09.239Z,0.51
2023-03-22T16:44:09.125Z,0.51
2023-03-22T16:45:09.093Z,0.50
2023-03-22T16:46:09.100Z,0.51
2023-03-22T16:47:09.047Z,0.51
2023-03-22T16:48:09.020Z,0.52
2023-03-22T16:52:08.925Z,0.51
2023-03-22T16:55:10.127Z,0.50
2023-03-22T16:56:08.851Z,0.51
2023-03-22T16:57:08.841Z,0.51
2023-03-22T16:58:08.791Z,0.50
2023-03-22T16:59:08.755Z,0.51
2023-03-22T17:03:08.661Z,0.51
2023-03-22T17:05:08.678Z,0.51
2023-03-22T17:07:08.574Z,0.51
2023-03-22T17:08:08.540Z,0.51
2023-03-22T17:09:08.517Z,0.51
2023-03-22T17:14:08.384Z,0.51
2023-03-22T17:16:08.377Z,0.50
2023-03-22T17:17:08.328Z,0.50
2023-03-22T17:18:08.290Z,0.51
2023-03-22T17:19:08.419Z,0.50
2023-03-22T17:20:08.240Z,0.51
2023-03-22T17:23:08.154Z,0.52
2023-03-22T17:24:08.125Z,0.51
2023-03-22T17:28:08.036Z,0.51
2023-03-22T17:30:08.000Z,0.51
2023-03-22T17:32:12.955Z,0.51
2023-03-22T17:34:08.034Z,0.51
2023-03-22T17:37:07.809Z,0.51
2023-03-22T17:38:09.264Z,0.51
2023-03-22T17:41:08.044Z,0.50
2023-03-22T17:42:07.683Z,0.51
2023-03-22T17:44:07.645Z,0.51
2023-03-22T17:45:07.718Z,0.50
2023-03-22T17:46:48.972Z,0.50
2023-03-22T17:47:35.306Z,0.51
2023-03-22T17:48:08.557Z,0.51
2023-03-22T17:49:07.518Z,0.51
2023-03-22T17:53:20.980Z,0.52
2023-03-22T17:56:43.199Z,0.51
2023-03-22T17:57:36.323Z,0.51
2023-03-22T17:59:08.251Z,0.51
2023-03-22T18:02:07.232Z,0.51
2023-03-22T18:05:07.112Z,0.51
2023-03-22T18:06:07.089Z,0.51
2023-03-22T18:07:07.069Z,0.51
2023-03-22T18:09:07.037Z,0.50
2023-03-22T18:10:07.009Z,0.50
2023-03-22T18:13:06.930Z,0.51
2023-03-22T18:14:21.166Z,0.51
2023-03-22T18:15:07.872Z,0.51
2023-03-22T18:16:06.856Z,0.51
2023-03-22T18:22:06.716Z,0.52
2023-03-22T18:23:06.695Z,0.51
2023-03-22T18:26:12.423Z,0.52
2023-03-22T18:27:11.391Z,0.52
2023-03-22T18:29:06.561Z,0.52
2023-03-22T18:31:06.533Z,0.52
2023-03-22T18:34:06.407Z,0.51
2023-03-22T18:37:06.389Z,0.51
2023-03-22T18:38:07.544Z,0.51
2023-03-22T18:39:30.569Z,0.51
2023-03-22T18:40:51.069Z,0.51
2023-03-22T18:46:18.769Z,0.52
2023-03-22T18:48:06.036Z,0.51
2023-03-22T18:49:06.005Z,0.51
2023-03-22T18:50:05.978Z,0.52
2023-03-22T18:51:11.611Z,0.52
2023-03-22T18:54:05.897Z,0.51
2023-03-22T18:57:05.804Z,0.50
2023-03-22T18:58:05.772Z,0.51
2023-03-22T18:59:05.762Z,0.51
2023-03-22T19:00:05.726Z,0.51
2023-03-22T19:01:05.758Z,0.50
2023-03-22T19:04:05.622Z,0.51
2023-03-22T19:08:19.656Z,0.53
2023-03-22T19:10:05.457Z,0.53
2023-03-22T19:15:04.800Z,0.52
2023-03-22T19:16:06.326Z,0.52
2023-03-22T19:17:05.313Z,0.53
2023-03-22T19:18:05.278Z,0.53
2023-03-22T19:19:05.264Z,0.53
2023-03-22T19:24:05.145Z,0.51
2023-03-22T19:25:05.121Z,0.51
2023-03-22T19:27:16.232Z,0.50
2023-03-22T19:29:05.033Z,0.50
2023-03-22T19:30:05.553Z,0.51
2023-03-22T19:31:04.996Z,0.51
2023-03-22T19:35:04.923Z,0.52
2023-03-22T19:38:04.839Z,0.51
2023-03-22T19:39:10.271Z,0.51
2023-03-22T19:41:14.893Z,0.51
2023-03-22T19:41:38.775Z,0.51
2023-03-22T19:46:04.674Z,0.52
2023-03-22T19:48:04.738Z,0.51
2023-03-22T19:50:04.619Z,0.50
2023-03-22T19:51:04.588Z,0.50
2023-03-22T19:53:33.015Z,0.52
2023-03-22T19:58:04.452Z,0.52
2023-03-22T19:59:04.568Z,0.52
2023-03-22T20:00:43.984Z,0.50
2023-03-22T20:01:05.389Z,0.50
2023-03-22T20:05:14.847Z,0.51
2023-03-22T20:06:06.512Z,0.50
2023-03-22T20:07:04.280Z,0.50
2023-03-22T20:08:04.236Z,0.51
2023-03-22T20:10:04.194Z,0.51
2023-03-22T20:15:04.081Z,0.51
2023-03-22T20:16:04.056Z,0.52
2023-03-22T20:17:06.837Z,0.51
2023-03-22T20:19:04.017Z,0.51
2023-03-22T20:20:04.708Z,0.51
2023-03-22T20:22:03.972Z,0.51
2023-03-22T20:25:03.916Z,0.52
2023-03-22T20:27:03.868Z,0.52
2023-03-22T20:30:03.840Z,0.52
2023-03-22T20:31:03.809Z,0.53
2023-03-22T20:34:03.738Z,0.52
2023-03-22T20:37:03.685Z,0.51
2023-03-22T20:38:03.653Z,0.52
2023-03-22T20:40:03.632Z,0.51
2023-03-22T20:41:03.604Z,0.52
2023-03-22T20:42:03.579Z,0.52
2023-03-22T20:45:03.537Z,0.52
2023-03-22T20:49:03.458Z,0.52
2023-03-22T20:50:03.463Z,0.52
2023-03-22T20:51:03.434Z,0.52
2023-03-22T20:54:03.372Z,0.52
2023-03-22T20:56:03.343Z,0.51